sensor_id;sensor_type;location;lat;lon;timestamp;P1;durP1;ratioP1;P2;durP2;ratioP2
70592;SDS011;58294;42.988;20.338;2023-12-20T00:01:00;165.40;;;126.07;;
70592;SDS011;58294;42.988;20.338;2023-12-20T00:03:26;177.43;;;135.27;;
70592;SDS011;58294;42.988;20.338;2023-12-20T00:05:52;170.77;;;132.43;;
70592;SDS011;58294;42.988;20.338;2023-12-20T00:08:18;159.70;;;120.32;;
70592;SDS011;58294;42.988;20.338;2023-12-20T00:10:44;152.95;;;119.78;;
70592;SDS011;58294;42.988;20.338;2023-12-20T00:13:10;165.43;;;124.47;;
70592;SDS011;58294;42.988;20.338;2023-12-20T00:15:36;168.00;;;127.90;;
70592;SDS011;58294;42.988;20.338;2023-12-20T00:18:02;154.35;;;121.43;;
70592;SDS011;58294;42.988;20.338;2023-12-20T00:20:28;156.18;;;119.30;;
70592;SDS011;58294;42.988;20.338;2023-12-20T00:22:55;176.48;;;131.50;;
70592;SDS011;58294;42.988;20.338;2023-12-20T00:25:22;180.25;;;130.55;;
70592;SDS011;58294;42.988;20.338;2023-12-20T00:27:49;189.40;;;143.07;;
70592;SDS011;58294;42.988;20.338;2023-12-20T00:30:16;176.30;;;126.57;;
70592;SDS011;58294;42.988;20.338;2023-12-20T00:32:42;141.73;;;111.35;;
70592;SDS011;58294;42.988;20.338;2023-12-20T00:35:11;135.98;;;110.70;;
70592;SDS011;58294;42.988;20.338;2023-12-20T00:37:40;134.80;;;101.15;;
70592;SDS011;58294;42.988;20.338;2023-12-20T00:40:05;127.43;;;105.18;;
70592;SDS011;58294;42.988;20.338;2023-12-20T00:42:32;139.60;;;105.40;;
70592;SDS011;58294;42.988;20.338;2023-12-20T00:44:58;126.07;;;102.38;;
70592;SDS011;58294;42.988;20.338;2023-12-20T00:47:24;140.20;;;102.85;;
70592;SDS011;58294;42.988;20.338;2023-12-20T00:49:51;120.88;;;97.13;;
70592;SDS011;58294;42.988;20.338;2023-12-20T00:52:17;133.02;;;101.88;;
70592;SDS011;58294;42.988;20.338;2023-12-20T00:54:43;151.40;;;116.07;;
70592;SDS011;58294;42.988;20.338;2023-12-20T00:57:10;208.85;;;136.65;;
70592;SDS011;58294;42.988;20.338;2023-12-20T00:59:36;181.55;;;134.48;;
70592;SDS011;58294;42.988;20.338;2023-12-20T01:02:02;143.88;;;103.82;;
70592;SDS011;58294;42.988;20.338;2023-12-20T01:04:27;135.10;;;100.38;;
70592;SDS011;58294;42.988;20.338;2023-12-20T01:06:53;147.68;;;103.10;;
70592;SDS011;58294;42.988;20.338;2023-12-20T01:09:19;126.18;;;91.90;;
70592;SDS011;58294;42.988;20.338;2023-12-20T01:11:48;143.32;;;100.70;;
70592;SDS011;58294;42.988;20.338;2023-12-20T01:14:15;139.23;;;99.25;;
70592;SDS011;58294;42.988;20.338;2023-12-20T01:16:40;141.68;;;99.95;;
70592;SDS011;58294;42.988;20.338;2023-12-20T01:19:06;163.95;;;101.60;;
70592;SDS011;58294;42.988;20.338;2023-12-20T01:21:32;163.02;;;109.85;;
70592;SDS011;58294;42.988;20.338;2023-12-20T01:23:58;144.77;;;98.75;;
70592;SDS011;58294;42.988;20.338;2023-12-20T01:26:24;136.52;;;99.63;;
70592;SDS011;58294;42.988;20.338;2023-12-20T01:28:49;136.38;;;100.40;;
70592;SDS011;58294;42.988;20.338;2023-12-20T01:31:15;136.52;;;104.88;;
70592;SDS011;58294;42.988;20.338;2023-12-20T01:33:41;133.05;;;105.40;;
70592;SDS011;58294;42.988;20.338;2023-12-20T01:36:07;142.18;;;100.78;;
70592;SDS011;58294;42.988;20.338;2023-12-20T01:38:32;137.45;;;95.68;;
70592;SDS011;58294;42.988;20.338;2023-12-20T01:40:58;116.05;;;85.60;;
70592;SDS011;58294;42.988;20.338;2023-12-20T01:43:25;123.90;;;87.47;;
70592;SDS011;58294;42.988;20.338;2023-12-20T01:45:51;107.70;;;84.05;;
70592;SDS011;58294;42.988;20.338;2023-12-20T01:48:18;106.25;;;80.05;;
70592;SDS011;58294;42.988;20.338;2023-12-20T01:50:45;109.05;;;79.80;;
70592;SDS011;58294;42.988;20.338;2023-12-20T01:53:12;106.93;;;79.07;;
70592;SDS011;58294;42.988;20.338;2023-12-20T01:55:39;96.13;;;77.07;;
70592;SDS011;58294;42.988;20.338;2023-12-20T01:58:05;111.70;;;80.38;;
70592;SDS011;58294;42.988;20.338;2023-12-20T02:00:33;110.90;;;77.65;;
70592;SDS011;58294;42.988;20.338;2023-12-20T02:03:00;119.18;;;82.70;;
70592;SDS011;58294;42.988;20.338;2023-12-20T02:05:27;107.60;;;78.32;;
70592;SDS011;58294;42.988;20.338;2023-12-20T02:07:54;110.15;;;80.65;;
70592;SDS011;58294;42.988;20.338;2023-12-20T02:10:20;112.50;;;77.63;;
70592;SDS011;58294;42.988;20.338;2023-12-20T02:12:46;112.88;;;71.30;;
70592;SDS011;58294;42.988;20.338;2023-12-20T02:15:12;106.90;;;71.32;;
70592;SDS011;58294;42.988;20.338;2023-12-20T02:17:38;105.53;;;76.25;;
70592;SDS011;58294;42.988;20.338;2023-12-20T02:20:05;117.82;;;79.40;;
70592;SDS011;58294;42.988;20.338;2023-12-20T02:22:32;144.38;;;93.85;;
70592;SDS011;58294;42.988;20.338;2023-12-20T02:24:57;142.27;;;94.07;;
70592;SDS011;58294;42.988;20.338;2023-12-20T02:27:23;147.95;;;92.53;;
70592;SDS011;58294;42.988;20.338;2023-12-20T02:29:49;130.63;;;84.75;;
70592;SDS011;58294;42.988;20.338;2023-12-20T02:32:19;116.70;;;79.05;;
70592;SDS011;58294;42.988;20.338;2023-12-20T02:34:47;111.80;;;80.45;;
70592;SDS011;58294;42.988;20.338;2023-12-20T02:37:13;113.95;;;75.00;;
70592;SDS011;58294;42.988;20.338;2023-12-20T02:39:39;99.95;;;73.05;;
70592;SDS011;58294;42.988;20.338;2023-12-20T02:42:05;97.50;;;74.28;;
70592;SDS011;58294;42.988;20.338;2023-12-20T02:44:30;101.07;;;70.63;;
70592;SDS011;58294;42.988;20.338;2023-12-20T02:46:56;106.70;;;74.75;;
70592;SDS011;58294;42.988;20.338;2023-12-20T02:49:22;96.47;;;69.63;;
70592;SDS011;58294;42.988;20.338;2023-12-20T02:51:48;96.75;;;70.78;;
70592;SDS011;58294;42.988;20.338;2023-12-20T02:54:14;104.43;;;66.15;;
70592;SDS011;58294;42.988;20.338;2023-12-20T02:56:40;97.93;;;69.03;;
70592;SDS011;58294;42.988;20.338;2023-12-20T02:59:05;92.78;;;66.78;;
70592;SDS011;58294;42.988;20.338;2023-12-20T03:01:33;100.97;;;72.07;;
70592;SDS011;58294;42.988;20.338;2023-12-20T03:04:00;108.75;;;74.60;;
70592;SDS011;58294;42.988;20.338;2023-12-20T03:06:26;128.80;;;89.47;;
70592;SDS011;58294;42.988;20.338;2023-12-20T03:08:52;146.05;;;94.68;;
70592;SDS011;58294;42.988;20.338;2023-12-20T03:11:17;157.25;;;108.65;;
70592;SDS011;58294;42.988;20.338;2023-12-20T03:13:43;142.60;;;93.20;;
70592;SDS011;58294;42.988;20.338;2023-12-20T03:16:10;115.43;;;85.00;;
70592;SDS011;58294;42.988;20.338;2023-12-20T03:18:36;113.10;;;81.38;;
70592;SDS011;58294;42.988;20.338;2023-12-20T03:21:03;99.97;;;76.35;;
70592;SDS011;58294;42.988;20.338;2023-12-20T03:23:30;101.20;;;76.97;;
70592;SDS011;58294;42.988;20.338;2023-12-20T03:25:57;104.10;;;73.70;;
70592;SDS011;58294;42.988;20.338;2023-12-20T03:28:23;96.80;;;72.50;;
70592;SDS011;58294;42.988;20.338;2023-12-20T03:30:50;102.88;;;75.28;;
70592;SDS011;58294;42.988;20.338;2023-12-20T03:33:15;96.32;;;70.97;;
70592;SDS011;58294;42.988;20.338;2023-12-20T03:35:41;93.40;;;68.68;;
70592;SDS011;58294;42.988;20.338;2023-12-20T03:38:07;108.53;;;75.38;;
70592;SDS011;58294;42.988;20.338;2023-12-20T03:40:33;104.55;;;73.25;;
70592;SDS011;58294;42.988;20.338;2023-12-20T03:42:59;101.68;;;69.88;;
70592;SDS011;58294;42.988;20.338;2023-12-20T03:45:25;99.70;;;74.65;;
70592;SDS011;58294;42.988;20.338;2023-12-20T03:47:51;98.78;;;74.35;;
70592;SDS011;58294;42.988;20.338;2023-12-20T03:50:24;96.35;;;69.03;;
70592;SDS011;58294;42.988;20.338;2023-12-20T03:52:51;90.80;;;66.93;;
70592;SDS011;58294;42.988;20.338;2023-12-20T03:55:17;93.00;;;66.57;;
70592;SDS011;58294;42.988;20.338;2023-12-20T03:57:43;89.70;;;67.00;;
70592;SDS011;58294;42.988;20.338;2023-12-20T04:00:10;91.53;;;68.82;;
70592;SDS011;58294;42.988;20.338;2023-12-20T04:02:39;88.53;;;67.82;;
70592;SDS011;58294;42.988;20.338;2023-12-20T04:05:06;91.43;;;65.65;;
70592;SDS011;58294;42.988;20.338;2023-12-20T04:07:33;97.15;;;71.47;;
70592;SDS011;58294;42.988;20.338;2023-12-20T04:10:00;86.95;;;66.47;;
70592;SDS011;58294;42.988;20.338;2023-12-20T04:12:27;104.32;;;72.95;;
70592;SDS011;58294;42.988;20.338;2023-12-20T04:14:53;102.55;;;76.50;;
70592;SDS011;58294;42.988;20.338;2023-12-20T04:17:19;95.53;;;71.07;;
70592;SDS011;58294;42.988;20.338;2023-12-20T04:19:47;106.90;;;73.32;;
70592;SDS011;58294;42.988;20.338;2023-12-20T04:22:14;106.22;;;75.10;;
70592;SDS011;58294;42.988;20.338;2023-12-20T04:24:39;99.95;;;76.32;;
70592;SDS011;58294;42.988;20.338;2023-12-20T04:27:07;132.45;;;97.28;;
70592;SDS011;58294;42.988;20.338;2023-12-20T04:29:33;137.30;;;93.90;;
70592;SDS011;58294;42.988;20.338;2023-12-20T04:31:59;105.75;;;79.15;;
70592;SDS011;58294;42.988;20.338;2023-12-20T04:34:25;115.10;;;83.45;;
70592;SDS011;58294;42.988;20.338;2023-12-20T04:36:51;96.15;;;77.00;;
70592;SDS011;58294;42.988;20.338;2023-12-20T04:39:17;104.25;;;78.18;;
70592;SDS011;58294;42.988;20.338;2023-12-20T04:41:43;105.57;;;80.40;;
70592;SDS011;58294;42.988;20.338;2023-12-20T04:44:09;112.72;;;83.18;;
70592;SDS011;58294;42.988;20.338;2023-12-20T04:46:34;106.57;;;80.75;;
70592;SDS011;58294;42.988;20.338;2023-12-20T04:49:00;100.68;;;75.75;;
70592;SDS011;58294;42.988;20.338;2023-12-20T04:51:26;99.28;;;77.75;;
70592;SDS011;58294;42.988;20.338;2023-12-20T04:53:52;111.95;;;80.10;;
70592;SDS011;58294;42.988;20.338;2023-12-20T04:56:18;103.10;;;78.28;;
70592;SDS011;58294;42.988;20.338;2023-12-20T04:58:44;121.35;;;86.60;;
70592;SDS011;58294;42.988;20.338;2023-12-20T05:01:10;119.07;;;89.70;;
70592;SDS011;58294;42.988;20.338;2023-12-20T05:03:36;116.50;;;82.80;;
70592;SDS011;58294;42.988;20.338;2023-12-20T05:06:02;102.35;;;75.22;;
70592;SDS011;58294;42.988;20.338;2023-12-20T05:08:28;124.28;;;88.95;;
70592;SDS011;58294;42.988;20.338;2023-12-20T05:10:54;105.13;;;72.90;;
70592;SDS011;58294;42.988;20.338;2023-12-20T05:13:20;99.50;;;68.07;;
70592;SDS011;58294;42.988;20.338;2023-12-20T05:15:46;85.28;;;66.53;;
70592;SDS011;58294;42.988;20.338;2023-12-20T05:18:12;89.68;;;64.30;;
70592;SDS011;58294;42.988;20.338;2023-12-20T05:20:39;82.95;;;60.90;;
70592;SDS011;58294;42.988;20.338;2023-12-20T05:23:05;79.25;;;59.17;;
70592;SDS011;58294;42.988;20.338;2023-12-20T05:25:31;80.28;;;60.60;;
70592;SDS011;58294;42.988;20.338;2023-12-20T05:27:57;76.68;;;61.40;;
70592;SDS011;58294;42.988;20.338;2023-12-20T05:30:22;83.38;;;60.33;;
70592;SDS011;58294;42.988;20.338;2023-12-20T05:32:48;108.72;;;78.32;;
70592;SDS011;58294;42.988;20.338;2023-12-20T05:35:14;81.68;;;62.25;;
70592;SDS011;58294;42.988;20.338;2023-12-20T05:37:40;86.75;;;67.30;;
70592;SDS011;58294;42.988;20.338;2023-12-20T05:40:07;100.38;;;72.72;;
70592;SDS011;58294;42.988;20.338;2023-12-20T05:42:36;110.05;;;78.75;;
70592;SDS011;58294;42.988;20.338;2023-12-20T05:45:03;103.22;;;77.93;;
70592;SDS011;58294;42.988;20.338;2023-12-20T05:47:30;110.05;;;79.70;;
70592;SDS011;58294;42.988;20.338;2023-12-20T05:49:55;102.68;;;79.07;;
70592;SDS011;58294;42.988;20.338;2023-12-20T05:52:21;111.47;;;81.95;;
70592;SDS011;58294;42.988;20.338;2023-12-20T05:54:47;113.65;;;82.97;;
70592;SDS011;58294;42.988;20.338;2023-12-20T05:57:13;145.18;;;98.55;;
70592;SDS011;58294;42.988;20.338;2023-12-20T05:59:39;159.13;;;108.03;;
70592;SDS011;58294;42.988;20.338;2023-12-20T06:02:05;130.00;;;95.35;;
70592;SDS011;58294;42.988;20.338;2023-12-20T06:04:31;122.70;;;90.82;;
70592;SDS011;58294;42.988;20.338;2023-12-20T06:06:57;134.63;;;97.07;;
70592;SDS011;58294;42.988;20.338;2023-12-20T06:09:23;126.90;;;94.05;;
70592;SDS011;58294;42.988;20.338;2023-12-20T06:11:49;124.18;;;91.95;;
70592;SDS011;58294;42.988;20.338;2023-12-20T06:14:15;113.93;;;86.72;;
70592;SDS011;58294;42.988;20.338;2023-12-20T06:16:41;100.85;;;74.15;;
70592;SDS011;58294;42.988;20.338;2023-12-20T06:19:07;91.07;;;66.53;;
70592;SDS011;58294;42.988;20.338;2023-12-20T06:21:33;91.20;;;68.72;;
70592;SDS011;58294;42.988;20.338;2023-12-20T06:23:59;98.97;;;73.75;;
70592;SDS011;58294;42.988;20.338;2023-12-20T06:26:25;96.65;;;75.70;;
70592;SDS011;58294;42.988;20.338;2023-12-20T06:28:51;148.77;;;111.25;;
70592;SDS011;58294;42.988;20.338;2023-12-20T06:31:16;144.30;;;108.07;;
70592;SDS011;58294;42.988;20.338;2023-12-20T06:33:43;150.20;;;110.90;;
70592;SDS011;58294;42.988;20.338;2023-12-20T06:36:12;147.45;;;112.25;;
70592;SDS011;58294;42.988;20.338;2023-12-20T06:38:39;147.20;;;110.93;;
70592;SDS011;58294;42.988;20.338;2023-12-20T06:41:05;141.52;;;105.68;;
70592;SDS011;58294;42.988;20.338;2023-12-20T06:43:31;140.48;;;103.85;;
70592;SDS011;58294;42.988;20.338;2023-12-20T06:45:57;132.90;;;101.20;;
70592;SDS011;58294;42.988;20.338;2023-12-20T06:48:23;131.50;;;95.82;;
70592;SDS011;58294;42.988;20.338;2023-12-20T06:50:49;128.75;;;98.20;;
70592;SDS011;58294;42.988;20.338;2023-12-20T06:53:15;145.65;;;110.28;;
70592;SDS011;58294;42.988;20.338;2023-12-20T06:55:41;154.00;;;117.00;;
70592;SDS011;58294;42.988;20.338;2023-12-20T06:58:07;145.73;;;106.68;;
70592;SDS011;58294;42.988;20.338;2023-12-20T07:00:34;142.40;;;105.70;;
70592;SDS011;58294;42.988;20.338;2023-12-20T07:03:00;141.63;;;105.72;;
70592;SDS011;58294;42.988;20.338;2023-12-20T07:05:26;151.10;;;114.40;;
70592;SDS011;58294;42.988;20.338;2023-12-20T07:07:52;152.20;;;115.38;;
70592;SDS011;58294;42.988;20.338;2023-12-20T07:10:18;150.13;;;116.90;;
70592;SDS011;58294;42.988;20.338;2023-12-20T07:12:44;160.82;;;120.10;;
70592;SDS011;58294;42.988;20.338;2023-12-20T07:15:10;167.63;;;127.25;;
70592;SDS011;58294;42.988;20.338;2023-12-20T07:17:37;164.10;;;119.57;;
70592;SDS011;58294;42.988;20.338;2023-12-20T07:20:03;156.90;;;121.38;;
70592;SDS011;58294;42.988;20.338;2023-12-20T07:22:30;156.35;;;120.35;;
70592;SDS011;58294;42.988;20.338;2023-12-20T07:24:59;165.13;;;130.93;;
70592;SDS011;58294;42.988;20.338;2023-12-20T07:27:25;204.82;;;153.50;;
70592;SDS011;58294;42.988;20.338;2023-12-20T07:29:52;201.50;;;150.88;;
70592;SDS011;58294;42.988;20.338;2023-12-20T07:32:18;204.90;;;146.77;;
70592;SDS011;58294;42.988;20.338;2023-12-20T07:34:44;193.18;;;141.27;;
70592;SDS011;58294;42.988;20.338;2023-12-20T07:37:10;203.65;;;145.15;;
70592;SDS011;58294;42.988;20.338;2023-12-20T07:39:39;203.30;;;156.93;;
70592;SDS011;58294;42.988;20.338;2023-12-20T07:42:06;224.80;;;174.73;;
70592;SDS011;58294;42.988;20.338;2023-12-20T07:44:33;214.23;;;159.43;;
70592;SDS011;58294;42.988;20.338;2023-12-20T07:47:00;202.00;;;157.63;;
70592;SDS011;58294;42.988;20.338;2023-12-20T07:49:26;194.07;;;153.88;;
70592;SDS011;58294;42.988;20.338;2023-12-20T07:51:52;204.15;;;158.00;;
70592;SDS011;58294;42.988;20.338;2023-12-20T07:54:18;208.30;;;160.23;;
70592;SDS011;58294;42.988;20.338;2023-12-20T07:56:45;216.40;;;163.68;;
70592;SDS011;58294;42.988;20.338;2023-12-20T07:59:11;229.68;;;177.73;;
70592;SDS011;58294;42.988;20.338;2023-12-20T08:01:37;226.88;;;178.60;;
70592;SDS011;58294;42.988;20.338;2023-12-20T08:04:03;225.07;;;175.02;;
70592;SDS011;58294;42.988;20.338;2023-12-20T08:06:29;214.27;;;175.23;;
70592;SDS011;58294;42.988;20.338;2023-12-20T08:08:55;200.07;;;161.68;;
70592;SDS011;58294;42.988;20.338;2023-12-20T08:11:20;200.32;;;160.35;;
70592;SDS011;58294;42.988;20.338;2023-12-20T08:13:46;193.10;;;155.45;;
70592;SDS011;58294;42.988;20.338;2023-12-20T08:16:12;233.15;;;182.70;;
70592;SDS011;58294;42.988;20.338;2023-12-20T08:18:38;215.88;;;173.75;;
70592;SDS011;58294;42.988;20.338;2023-12-20T08:21:04;221.35;;;183.55;;
70592;SDS011;58294;42.988;20.338;2023-12-20T08:23:34;207.52;;;172.35;;
70592;SDS011;58294;42.988;20.338;2023-12-20T08:26:06;213.27;;;170.88;;
70592;SDS011;58294;42.988;20.338;2023-12-20T08:28:33;208.35;;;170.40;;
70592;SDS011;58294;42.988;20.338;2023-12-20T08:30:59;218.63;;;178.25;;
70592;SDS011;58294;42.988;20.338;2023-12-20T08:33:25;195.55;;;166.52;;
70592;SDS011;58294;42.988;20.338;2023-12-20T08:35:50;248.82;;;205.98;;
70592;SDS011;58294;42.988;20.338;2023-12-20T08:38:16;247.77;;;203.98;;
70592;SDS011;58294;42.988;20.338;2023-12-20T08:40:43;259.50;;;218.50;;
70592;SDS011;58294;42.988;20.338;2023-12-20T08:43:09;231.23;;;194.68;;
70592;SDS011;58294;42.988;20.338;2023-12-20T08:45:35;257.25;;;220.30;;
70592;SDS011;58294;42.988;20.338;2023-12-20T08:48:01;265.15;;;221.30;;
70592;SDS011;58294;42.988;20.338;2023-12-20T08:50:28;270.77;;;230.32;;
70592;SDS011;58294;42.988;20.338;2023-12-20T08:52:54;276.35;;;232.52;;
70592;SDS011;58294;42.988;20.338;2023-12-20T08:55:20;249.75;;;208.57;;
70592;SDS011;58294;42.988;20.338;2023-12-20T08:57:46;249.93;;;210.93;;
70592;SDS011;58294;42.988;20.338;2023-12-20T09:00:12;224.70;;;191.02;;
70592;SDS011;58294;42.988;20.338;2023-12-20T09:02:38;221.93;;;185.45;;
70592;SDS011;58294;42.988;20.338;2023-12-20T09:05:04;220.02;;;189.75;;
70592;SDS011;58294;42.988;20.338;2023-12-20T09:07:30;209.43;;;182.60;;
70592;SDS011;58294;42.988;20.338;2023-12-20T09:09:56;220.82;;;186.77;;
70592;SDS011;58294;42.988;20.338;2023-12-20T09:12:23;216.45;;;182.35;;
70592;SDS011;58294;42.988;20.338;2023-12-20T09:14:49;226.20;;;199.95;;
70592;SDS011;58294;42.988;20.338;2023-12-20T09:17:16;233.75;;;203.07;;
70592;SDS011;58294;42.988;20.338;2023-12-20T09:19:43;219.38;;;192.10;;
70592;SDS011;58294;42.988;20.338;2023-12-20T09:22:09;213.65;;;190.07;;
70592;SDS011;58294;42.988;20.338;2023-12-20T09:24:35;210.63;;;182.95;;
70592;SDS011;58294;42.988;20.338;2023-12-20T09:27:01;219.73;;;187.02;;
70592;SDS011;58294;42.988;20.338;2023-12-20T09:29:27;219.63;;;189.27;;
70592;SDS011;58294;42.988;20.338;2023-12-20T09:31:54;210.00;;;184.75;;
70592;SDS011;58294;42.988;20.338;2023-12-20T09:34:20;207.77;;;178.93;;
70592;SDS011;58294;42.988;20.338;2023-12-20T09:36:46;204.52;;;177.57;;
70592;SDS011;58294;42.988;20.338;2023-12-20T09:39:13;232.15;;;198.32;;
70592;SDS011;58294;42.988;20.338;2023-12-20T09:41:43;216.35;;;185.30;;
70592;SDS011;58294;42.988;20.338;2023-12-20T09:44:12;230.32;;;198.32;;
70592;SDS011;58294;42.988;20.338;2023-12-20T09:46:43;222.77;;;190.00;;
70592;SDS011;58294;42.988;20.338;2023-12-20T09:49:10;230.65;;;200.02;;
70592;SDS011;58294;42.988;20.338;2023-12-20T09:51:37;247.73;;;204.38;;
70592;SDS011;58294;42.988;20.338;2023-12-20T09:54:04;238.43;;;203.77;;
70592;SDS011;58294;42.988;20.338;2023-12-20T09:56:30;300.15;;;248.27;;
70592;SDS011;58294;42.988;20.338;2023-12-20T09:58:56;319.88;;;262.83;;
70592;SDS011;58294;42.988;20.338;2023-12-20T10:01:23;323.75;;;268.27;;
70592;SDS011;58294;42.988;20.338;2023-12-20T10:03:50;277.67;;;229.05;;
70592;SDS011;58294;42.988;20.338;2023-12-20T10:06:18;279.48;;;235.18;;
70592;SDS011;58294;42.988;20.338;2023-12-20T10:08:44;286.15;;;254.05;;
70592;SDS011;58294;42.988;20.338;2023-12-20T10:11:09;306.20;;;260.88;;
70592;SDS011;58294;42.988;20.338;2023-12-20T10:13:39;293.17;;;256.98;;
70592;SDS011;58294;42.988;20.338;2023-12-20T10:16:06;272.95;;;235.68;;
70592;SDS011;58294;42.988;20.338;2023-12-20T10:18:35;265.27;;;227.27;;
70592;SDS011;58294;42.988;20.338;2023-12-20T10:21:01;288.70;;;243.60;;
70592;SDS011;58294;42.988;20.338;2023-12-20T10:23:28;289.70;;;252.43;;
70592;SDS011;58294;42.988;20.338;2023-12-20T10:25:56;300.08;;;256.38;;
70592;SDS011;58294;42.988;20.338;2023-12-20T10:28:25;287.98;;;253.57;;
70592;SDS011;58294;42.988;20.338;2023-12-20T10:30:54;301.17;;;261.98;;
70592;SDS011;58294;42.988;20.338;2023-12-20T10:33:26;283.42;;;249.25;;
70592;SDS011;58294;42.988;20.338;2023-12-20T10:35:54;294.15;;;256.33;;
70592;SDS011;58294;42.988;20.338;2023-12-20T10:38:20;267.05;;;236.45;;
70592;SDS011;58294;42.988;20.338;2023-12-20T10:40:47;245.45;;;210.02;;
70592;SDS011;58294;42.988;20.338;2023-12-20T10:43:14;228.98;;;203.93;;
70592;SDS011;58294;42.988;20.338;2023-12-20T10:45:43;244.57;;;217.27;;
70592;SDS011;58294;42.988;20.338;2023-12-20T10:48:10;245.40;;;217.85;;
70592;SDS011;58294;42.988;20.338;2023-12-20T10:50:39;206.98;;;183.95;;
70592;SDS011;58294;42.988;20.338;2023-12-20T10:53:06;195.90;;;159.57;;
70592;SDS011;58294;42.988;20.338;2023-12-20T10:55:32;180.82;;;150.77;;
70592;SDS011;58294;42.988;20.338;2023-12-20T10:58:05;176.10;;;151.75;;
70592;SDS011;58294;42.988;20.338;2023-12-20T11:00:33;235.85;;;204.27;;
70592;SDS011;58294;42.988;20.338;2023-12-20T11:03:09;226.48;;;202.00;;
70592;SDS011;58294;42.988;20.338;2023-12-20T11:10:43;225.25;;;200.88;;
70592;SDS011;58294;42.988;20.338;2023-12-20T11:13:26;158.18;;;134.27;;
70592;SDS011;58294;42.988;20.338;2023-12-20T11:15:58;152.10;;;133.85;;
70592;SDS011;58294;42.988;20.338;2023-12-20T11:18:30;148.15;;;130.27;;
70592;SDS011;58294;42.988;20.338;2023-12-20T11:21:05;155.05;;;138.13;;
70592;SDS011;58294;42.988;20.338;2023-12-20T11:23:32;212.10;;;188.70;;
70592;SDS011;58294;42.988;20.338;2023-12-20T11:25:59;225.82;;;201.32;;
70592;SDS011;58294;42.988;20.338;2023-12-20T11:28:26;220.27;;;196.68;;
70592;SDS011;58294;42.988;20.338;2023-12-20T11:30:53;222.23;;;198.65;;
70592;SDS011;58294;42.988;20.338;2023-12-20T11:33:23;213.13;;;190.25;;
70592;SDS011;58294;42.988;20.338;2023-12-20T11:35:50;209.95;;;187.23;;
70592;SDS011;58294;42.988;20.338;2023-12-20T11:38:19;220.10;;;196.07;;
70592;SDS011;58294;42.988;20.338;2023-12-20T11:40:47;216.05;;;193.25;;
70592;SDS011;58294;42.988;20.338;2023-12-20T11:46:03;237.63;;;211.90;;
70592;SDS011;58294;42.988;20.338;2023-12-20T11:48:37;244.90;;;218.60;;
70592;SDS011;58294;42.988;20.338;2023-12-20T11:51:11;247.55;;;221.65;;
70592;SDS011;58294;42.988;20.338;2023-12-20T11:53:38;240.88;;;215.50;;
70592;SDS011;58294;42.988;20.338;2023-12-20T11:56:09;250.70;;;224.40;;
70592;SDS011;58294;42.988;20.338;2023-12-20T11:58:36;248.40;;;222.07;;
70592;SDS011;58294;42.988;20.338;2023-12-20T12:01:02;249.02;;;222.68;;
70592;SDS011;58294;42.988;20.338;2023-12-20T12:03:29;243.10;;;217.25;;
70592;SDS011;58294;42.988;20.338;2023-12-20T12:05:55;231.05;;;205.77;;
70592;SDS011;58294;42.988;20.338;2023-12-20T12:08:21;218.15;;;194.57;;
70592;SDS011;58294;42.988;20.338;2023-12-20T12:10:47;208.48;;;185.88;;
70592;SDS011;58294;42.988;20.338;2023-12-20T12:13:14;206.93;;;184.98;;
70592;SDS011;58294;42.988;20.338;2023-12-20T12:15:40;170.57;;;148.70;;
70592;SDS011;58294;42.988;20.338;2023-12-20T12:18:07;181.85;;;155.73;;
70592;SDS011;58294;42.988;20.338;2023-12-20T12:20:33;165.68;;;147.55;;
70592;SDS011;58294;42.988;20.338;2023-12-20T12:23:06;170.60;;;152.07;;
70592;SDS011;58294;42.988;20.338;2023-12-20T12:25:32;186.27;;;164.45;;
70592;SDS011;58294;42.988;20.338;2023-12-20T12:28:00;190.43;;;164.80;;
70592;SDS011;58294;42.988;20.338;2023-12-20T12:30:26;193.10;;;172.05;;
70592;SDS011;58294;42.988;20.338;2023-12-20T12:32:53;204.27;;;178.75;;
70592;SDS011;58294;42.988;20.338;2023-12-20T12:35:21;210.68;;;187.52;;
70592;SDS011;58294;42.988;20.338;2023-12-20T12:37:47;213.68;;;184.95;;
70592;SDS011;58294;42.988;20.338;2023-12-20T12:40:14;193.20;;;170.82;;
70592;SDS011;58294;42.988;20.338;2023-12-20T12:42:41;199.65;;;171.20;;
70592;SDS011;58294;42.988;20.338;2023-12-20T12:45:08;212.90;;;189.57;;
70592;SDS011;58294;42.988;20.338;2023-12-20T12:47:35;246.90;;;217.05;;
70592;SDS011;58294;42.988;20.338;2023-12-20T12:50:01;238.20;;;209.80;;
70592;SDS011;58294;42.988;20.338;2023-12-20T12:52:27;233.60;;;207.52;;
70592;SDS011;58294;42.988;20.338;2023-12-20T12:54:53;231.70;;;206.63;;
70592;SDS011;58294;42.988;20.338;2023-12-20T12:57:19;214.10;;;186.13;;
70592;SDS011;58294;42.988;20.338;2023-12-20T12:59:45;250.77;;;212.60;;
70592;SDS011;58294;42.988;20.338;2023-12-20T13:02:14;252.30;;;224.55;;
70592;SDS011;58294;42.988;20.338;2023-12-20T13:04:40;256.65;;;225.77;;
70592;SDS011;58294;42.988;20.338;2023-12-20T13:07:07;244.48;;;215.35;;
70592;SDS011;58294;42.988;20.338;2023-12-20T13:09:35;227.73;;;195.40;;
70592;SDS011;58294;42.988;20.338;2023-12-20T13:12:01;260.23;;;225.73;;
70592;SDS011;58294;42.988;20.338;2023-12-20T13:14:29;242.38;;;209.73;;
70592;SDS011;58294;42.988;20.338;2023-12-20T13:16:58;242.27;;;215.60;;
70592;SDS011;58294;42.988;20.338;2023-12-20T13:19:23;242.02;;;215.25;;
70592;SDS011;58294;42.988;20.338;2023-12-20T13:21:49;216.75;;;192.05;;
70592;SDS011;58294;42.988;20.338;2023-12-20T13:24:15;209.10;;;186.50;;
70592;SDS011;58294;42.988;20.338;2023-12-20T13:26:41;206.07;;;183.57;;
70592;SDS011;58294;42.988;20.338;2023-12-20T13:29:07;216.82;;;187.13;;
70592;SDS011;58294;42.988;20.338;2023-12-20T13:31:33;229.43;;;202.27;;
70592;SDS011;58294;42.988;20.338;2023-12-20T13:34:01;233.60;;;207.93;;
70592;SDS011;58294;42.988;20.338;2023-12-20T13:36:27;243.55;;;216.80;;
70592;SDS011;58294;42.988;20.338;2023-12-20T13:38:53;242.55;;;215.60;;
70592;SDS011;58294;42.988;20.338;2023-12-20T13:41:19;245.85;;;218.73;;
70592;SDS011;58294;42.988;20.338;2023-12-20T13:43:45;242.57;;;216.40;;
70592;SDS011;58294;42.988;20.338;2023-12-20T13:46:11;277.45;;;247.35;;
70592;SDS011;58294;42.988;20.338;2023-12-20T13:48:37;264.63;;;235.48;;
70592;SDS011;58294;42.988;20.338;2023-12-20T13:51:03;264.13;;;236.02;;
70592;SDS011;58294;42.988;20.338;2023-12-20T13:53:29;273.95;;;244.25;;
70592;SDS011;58294;42.988;20.338;2023-12-20T13:55:55;271.80;;;242.27;;